createdAt,value
2017-10-10T00:00:38.369Z,13.50
2017-10-10T00:03:06.658Z,13.50
2017-10-10T00:05:34.932Z,13.50
2017-10-10T00:08:03.179Z,13.50
2017-10-10T00:10:32.207Z,13.40
2017-10-10T00:13:00.450Z,13.40
2017-10-10T00:15:29.474Z,13.50
2017-10-10T00:17:57.721Z,13.50
2017-10-10T00:20:25.978Z,13.40
2017-10-10T00:22:54.223Z,13.40
2017-10-10T00:25:22.484Z,13.50
2017-10-10T00:27:51.515Z,13.40
2017-10-10T00:30:19.775Z,13.40
2017-10-10T00:32:48.089Z,13.50
2017-10-10T00:35:16.396Z,13.40
2017-10-10T00:37:44.613Z,13.30
2017-10-10T00:40:13.645Z,13.30
2017-10-10T00:42:41.891Z,13.30
2017-10-10T00:45:10.935Z,13.30
2017-10-10T00:47:39.202Z,13.30
2017-10-10T00:50:07.466Z,13.30
2017-10-10T00:52:35.731Z,13.30
2017-10-10T00:55:04.765Z,13.30
2017-10-10T00:57:33.041Z,13.30
2017-10-10T01:00:01.299Z,13.30
2017-10-10T01:02:29.565Z,13.30
2017-10-10T01:04:58.630Z,13.30
2017-10-10T01:07:26.892Z,13.30
2017-10-10T01:09:55.145Z,13.40
2017-10-10T01:12:23.407Z,13.30
2017-10-10T01:14:52.461Z,13.40
2017-10-10T01:17:20.711Z,13.40
2017-10-10T01:19:48.981Z,13.40
2017-10-10T01:22:18.877Z,13.30
2017-10-10T01:24:47.216Z,13.30
2017-10-10T01:27:15.503Z,13.30
2017-10-10T01:29:43.775Z,13.30
2017-10-10T01:32:12.038Z,13.30
2017-10-10T01:34:40.337Z,13.30
2017-10-10T01:37:08.598Z,13.30
2017-10-10T01:39:36.842Z,13.30
2017-10-10T01:42:05.183Z,13.30
2017-10-10T01:44:33.425Z,13.30
2017-10-10T01:47:02.468Z,13.30
2017-10-10T01:49:30.737Z,13.20
2017-10-10T01:51:59.015Z,13.20
2017-10-10T01:54:27.308Z,13.20
2017-10-10T01:56:55.578Z,13.20
2017-10-10T01:59:23.862Z,13.20
2017-10-10T02:01:52.145Z,13.30
2017-10-10T02:04:20.429Z,13.20
2017-10-10T02:06:48.726Z,13.20
2017-10-10T02:09:16.995Z,13.10
2017-10-10T02:11:45.244Z,13.20
2017-10-10T02:14:13.520Z,13.20
2017-10-10T02:16:42.538Z,13.20
2017-10-10T02:19:10.806Z,13.20
2017-10-10T02:21:39.127Z,13.20
2017-10-10T02:24:07.390Z,13.30
2017-10-10T02:26:35.644Z,13.30
2017-10-10T02:29:04.679Z,13.30
2017-10-10T02:31:32.926Z,13.20
2017-10-10T02:34:01.196Z,13.20
2017-10-10T02:36:30.201Z,13.20
2017-10-10T02:38:59.231Z,13.20
2017-10-10T02:41:27.484Z,13.20
2017-10-10T02:43:56.624Z,13.20
2017-10-10T02:46:24.941Z,13.20
2017-10-10T02:48:54.147Z,13.20
2017-10-10T02:51:22.408Z,13.10
2017-10-10T02:53:50.687Z,13.20
2017-10-10T02:56:18.947Z,13.20
2017-10-10T02:58:47.203Z,13.10
2017-10-10T03:01:15.450Z,13.20
2017-10-10T03:03:44.481Z,13.20
2017-10-10T03:06:12.788Z,13.20
2017-10-10T03:08:41.812Z,13.10
2017-10-10T03:11:10.168Z,13.10
2017-10-10T03:13:38.447Z,13.20
2017-10-10T03:16:06.728Z,13.20
2017-10-10T03:18:35.020Z,13.20
2017-10-10T03:21:03.276Z,13.10
2017-10-10T03:23:31.571Z,13.00
2017-10-10T03:25:59.839Z,13.10
2017-10-10T03:28:28.080Z,13.10
2017-10-10T03:30:57.196Z,13.10
2017-10-10T03:33:26.218Z,13.20
2017-10-10T03:35:54.505Z,13.10
2017-10-10T03:38:22.810Z,13.10
2017-10-10T03:40:51.064Z,13.10
2017-10-10T03:43:19.361Z,13.10
2017-10-10T03:45:47.620Z,13.10
2017-10-10T03:48:15.865Z,13.00
2017-10-10T03:50:44.137Z,13.00
2017-10-10T03:53:12.389Z,13.00
2017-10-10T03:55:40.672Z,12.90
2017-10-10T03:58:08.927Z,12.90
2017-10-10T04:00:37.195Z,12.90
2017-10-10T04:03:06.210Z,13.00
2017-10-10T04:05:34.506Z,13.00
2017-10-10T04:08:02.759Z,13.00
2017-10-10T04:10:31.050Z,13.00
2017-10-10T04:12:59.294Z,13.10
2017-10-10T04:15:27.555Z,13.00
2017-10-10T04:17:55.922Z,13.00
2017-10-10T04:20:24.299Z,13.10
2017-10-10T04:22:52.542Z,13.00
2017-10-10T04:25:21.563Z,13.00
2017-10-10T04:27:49.834Z,13.00
2017-10-10T04:30:18.086Z,13.00
2017-10-10T04:32:46.351Z,13.00
2017-10-10T04:35:14.605Z,13.10
2017-10-10T04:37:42.890Z,13.00
2017-10-10T04:40:11.208Z,13.00
2017-10-10T04:42:39.456Z,13.00
2017-10-10T04:45:07.714Z,13.00
2017-10-10T04:47:36.003Z,12.90
2017-10-10T04:50:05.012Z,13.00
2017-10-10T04:52:33.296Z,13.00
2017-10-10T04:55:01.568Z,13.00
2017-10-10T04:57:30.196Z,13.00
2017-10-10T04:59:59.294Z,12.90
2017-10-10T05:02:27.949Z,12.90
2017-10-10T05:04:56.243Z,12.90
2017-10-10T05:07:24.514Z,12.90
2017-10-10T05:09:52.770Z,12.80
2017-10-10T05:12:21.039Z,12.80
2017-10-10T05:14:49.356Z,12.80
2017-10-10T05:17:17.616Z,12.80
2017-10-10T05:19:45.870Z,12.90
2017-10-10T05:22:14.905Z,12.90
2017-10-10T05:24:43.168Z,12.90
2017-10-10T05:27:12.303Z,12.90
2017-10-10T05:29:40.588Z,12.90
2017-10-10T05:32:08.870Z,12.90
2017-10-10T05:34:37.143Z,12.80
2017-10-10T05:37:06.250Z,12.70
2017-10-10T05:39:34.514Z,12.70
2017-10-10T05:42:02.835Z,12.80
2017-10-10T05:44:31.128Z,12.80
2017-10-10T05:47:00.905Z,12.70
2017-10-10T05:49:29.171Z,12.70
2017-10-10T05:51:57.477Z,12.70
2017-10-10T05:54:25.750Z,12.70
2017-10-10T05:56:53.999Z,12.60
2017-10-10T05:59:23.036Z,12.50
2017-10-10T06:01:51.291Z,12.50
2017-10-10T06:04:19.571Z,12.40
2017-10-10T06:06:47.821Z,12.40
2017-10-10T06:09:16.262Z,12.40
2017-10-10T06:11:44.545Z,12.40
2017-10-10T06:14:12.820Z,12.30
2017-10-10T06:16:41.103Z,12.30
2017-10-10T06:19:09.365Z,12.40
2017-10-10T06:21:37.701Z,12.40
2017-10-10T06:24:06.047Z,12.50
2017-10-10T06:26:34.335Z,12.50
2017-10-10T06:29:02.602Z,12.50
2017-10-10T06:31:30.871Z,12.50
2017-10-10T06:33:59.142Z,12.40
2017-10-10T06:36:28.166Z,12.30
2017-10-10T06:38:56.455Z,12.30
2017-10-10T06:41:24.712Z,12.30
2017-10-10T06:43:53.026Z,12.30
2017-10-10T06:46:21.290Z,12.30
2017-10-10T06:48:49.556Z,12.30
2017-10-10T06:51:17.825Z,12.30
2017-10-10T06:53:46.131Z,12.30
2017-10-10T06:56:14.427Z,12.30
2017-10-10T06:58:42.682Z,12.20
2017-10-10T07:01:10.955Z,12.30
2017-10-10T07:03:39.215Z,12.30
2017-10-10T07:06:07.481Z,12.30
2017-10-10T07:08:35.726Z,12.30
2017-10-10T07:11:04.007Z,12.30
2017-10-10T07:13:32.263Z,12.30
2017-10-10T07:16:00.536Z,12.30
2017-10-10T07:18:29.571Z,12.30
2017-10-10T07:20:57.841Z,12.30
2017-10-10T07:23:26.114Z,12.30
2017-10-10T07:25:54.421Z,12.30
2017-10-10T07:28:22.767Z,12.30
2017-10-10T07:30:51.055Z,12.30
2017-10-10T07:33:19.302Z,12.40
2017-10-10T07:35:47.588Z,12.40
2017-10-10T07:38:16.073Z,12.40
2017-10-10T07:40:44.551Z,12.50
2017-10-10T07:43:13.809Z,12.60
2017-10-10T07:45:42.949Z,12.60
2017-10-10T07:48:11.549Z,12.60
2017-10-10T07:50:39.927Z,12.70
2017-10-10T07:53:08.184Z,12.70
2017-10-10T07:55:36.485Z,12.70
2017-10-10T07:58:04.751Z,12.70
2017-10-10T08:00:33.031Z,12.70
2017-10-10T08:03:01.314Z,12.70
2017-10-10T08:05:29.572Z,12.80
2017-10-10T08:07:57.885Z,12.80
2017-10-10T08:10:26.159Z,12.80
2017-10-10T08:12:54.434Z,12.80
2017-10-10T08:15:22.682Z,12.80
2017-10-10T08:17:50.958Z,12.70
2017-10-10T08:20:20.043Z,12.70
2017-10-10T08:22:48.384Z,12.70
2017-10-10T08:25:16.701Z,12.80
2017-10-10T08:27:44.947Z,12.80
2017-10-10T08:30:13.196Z,12.90
2017-10-10T08:32:41.506Z,12.80
2017-10-10T08:35:09.766Z,12.80
2017-10-10T08:37:38.030Z,12.90
2017-10-10T08:40:07.054Z,12.90
2017-10-10T08:42:35.322Z,12.90
2017-10-10T08:45:03.586Z,13.00
2017-10-10T08:47:32.644Z,12.90
2017-10-10T08:50:00.906Z,12.90
2017-10-10T08:52:29.184Z,13.00
2017-10-10T08:54:57.443Z,13.00
2017-10-10T08:57:25.726Z,13.00
2017-10-10T08:59:53.987Z,13.10
2017-10-10T09:02:23.036Z,13.10
2017-10-10T09:04:51.311Z,13.10
2017-10-10T09:07:19.599Z,13.10
2017-10-10T09:09:47.885Z,13.00
2017-10-10T09:12:16.129Z,13.10
2017-10-10T09:14:44.438Z,13.10
2017-10-10T09:17:12.694Z,13.00
2017-10-10T09:19:40.962Z,13.10
2017-10-10T09:22:09.225Z,13.10
2017-10-10T09:24:38.273Z,13.10
2017-10-10T09:27:06.560Z,13.00
2017-10-10T09:29:34.847Z,13.10
2017-10-10T09:32:03.119Z,13.00
2017-10-10T09:34:31.391Z,13.00
2017-10-10T09:36:59.646Z,13.00
2017-10-10T09:39:28.784Z,13.00
2017-10-10T09:41:57.041Z,13.00
2017-10-10T09:44:25.351Z,13.10
2017-10-10T09:46:53.609Z,13.10
2017-10-10T09:49:21.871Z,13.00
2017-10-10T09:51:50.191Z,13.10
2017-10-10T09:54:18.474Z,13.10
2017-10-10T09:56:46.741Z,13.10
2017-10-10T09:59:15.011Z,13.10
2017-10-10T10:01:47.550Z,13.10
2017-10-10T10:04:15.835Z,13.10
2017-10-10T10:06:44.086Z,13.20
2017-10-10T10:09:12.365Z,13.20
2017-10-10T10:11:40.619Z,13.10
2017-10-10T10:14:08.895Z,13.20
2017-10-10T10:16:37.206Z,13.20
2017-10-10T10:19:05.461Z,13.30
2017-10-10T10:21:33.762Z,13.30
2017-10-10T10:24:02.028Z,13.20
2017-10-10T10:26:30.302Z,13.30
2017-10-10T10:28:58.548Z,13.30
2017-10-10T10:31:27.582Z,13.40
2017-10-10T10:33:55.843Z,13.40
2017-10-10T10:36:24.883Z,13.40
2017-10-10T10:38:53.140Z,13.40
2017-10-10T10:41:21.411Z,13.40
2017-10-10T10:43:50.438Z,13.50
2017-10-10T10:46:18.705Z,13.40
2017-10-10T10:48:47.174Z,13.40
2017-10-10T10:51:15.419Z,13.50
2017-10-10T10:53:43.678Z,13.50
2017-10-10T10:56:11.956Z,13.60
2017-10-10T10:58:40.239Z,13.60
2017-10-10T11:01:08.508Z,13.60
2017-10-10T11:03:36.761Z,13.70
2017-10-10T11:06:05.800Z,13.90
2017-10-10T11:08:34.281Z,13.90
2017-10-10T11:11:02.531Z,14.00
2017-10-10T11:13:31.561Z,14.10
2017-10-10T11:15:59.831Z,14.10
2017-10-10T11:18:28.098Z,14.20
2017-10-10T11:20:57.115Z,14.20
2017-10-10T11:23:25.369Z,14.20
2017-10-10T11:25:54.416Z,14.40
2017-10-10T11:28:22.784Z,14.30
2017-10-10T11:30:51.075Z,14.40
2017-10-10T11:33:19.350Z,14.40
2017-10-10T11:35:47.613Z,14.50
2017-10-10T11:38:15.910Z,14.50
2017-10-10T11:40:44.203Z,14.50
2017-10-10T11:43:12.478Z,14.50
2017-10-10T11:45:40.730Z,14.60
2017-10-10T11:48:09.044Z,14.60
2017-10-10T11:50:37.288Z,14.60
2017-10-10T11:53:06.317Z,14.60
2017-10-10T11:55:34.606Z,14.60
2017-10-10T11:58:02.882Z,14.60
2017-10-10T12:00:31.132Z,14.70
2017-10-10T12:02:59.399Z,14.80
2017-10-10T12:05:28.432Z,14.90
2017-10-10T12:07:56.707Z,14.90
2017-10-10T12:10:24.984Z,15.00
2017-10-10T12:12:53.322Z,15.10
2017-10-10T12:15:21.563Z,15.10
2017-10-10T12:17:49.828Z,15.20
2017-10-10T12:20:18.152Z,15.20
2017-10-10T12:22:46.394Z,15.20
2017-10-10T12:25:15.427Z,15.20
2017-10-10T12:27:43.784Z,15.20
2017-10-10T12:30:12.047Z,15.20
2017-10-10T12:32:40.320Z,15.30
2017-10-10T12:35:09.327Z,15.20
2017-10-10T12:37:37.639Z,15.10
2017-10-10T12:40:05.897Z,15.20
2017-10-10T12:42:34.952Z,15.20
2017-10-10T12:45:03.176Z,15.20
2017-10-10T12:47:31.423Z,15.20
2017-10-10T12:49:59.760Z,15.20
2017-10-10T12:52:28.028Z,15.10
2017-10-10T12:54:56.328Z,15.10
2017-10-10T12:57:24.574Z,15.10
2017-10-10T12:59:53.605Z,15.10
2017-10-10T13:02:21.862Z,15.10
2017-10-10T13:04:50.891Z,15.30
2017-10-10T13:07:19.131Z,15.30
2017-10-10T13:09:48.152Z,15.50
2017-10-10T13:12:16.392Z,15.50
2017-10-10T13:14:44.744Z,15.50
2017-10-10T13:17:13.006Z,15.60
2017-10-10T13:19:41.292Z,15.60
2017-10-10T13:22:09.528Z,15.60
2017-10-10T13:24:38.553Z,15.70
2017-10-10T13:27:07.555Z,15.80
2017-10-10T13:29:35.812Z,15.80
2017-10-10T13:32:04.812Z,15.60
2017-10-10T13:34:33.835Z,15.60
2017-10-10T13:37:02.077Z,15.60
2017-10-10T13:39:30.452Z,15.60
2017-10-10T13:41:59.103Z,15.70
2017-10-10T13:44:27.734Z,15.80
2017-10-10T13:46:55.980Z,15.80
2017-10-10T13:49:24.271Z,15.80
2017-10-10T13:51:52.531Z,15.80
2017-10-10T13:54:20.774Z,15.90
2017-10-10T13:56:49.801Z,15.90
2017-10-10T13:59:18.056Z,15.90
2017-10-10T14:01:47.085Z,16.00
2017-10-10T14:04:15.332Z,16.00
2017-10-10T14:06:44.370Z,16.00
2017-10-10T14:09:12.615Z,15.90
2017-10-10T14:11:41.652Z,15.90
2017-10-10T14:14:09.901Z,15.90
2017-10-10T14:16:38.919Z,15.90
2017-10-10T14:19:07.158Z,15.90
2017-10-10T14:21:36.214Z,15.80
2017-10-10T14:24:04.482Z,15.80
2017-10-10T14:26:32.766Z,15.80
2017-10-10T14:29:01.104Z,15.80
2017-10-10T14:31:29.395Z,15.70
2017-10-10T14:33:58.432Z,15.70
2017-10-10T14:36:26.756Z,15.60
2017-10-10T14:38:55.033Z,15.70
2017-10-10T14:41:24.046Z,15.90
2017-10-10T14:43:53.053Z,15.80
2017-10-10T14:46:22.087Z,15.80
2017-10-10T14:48:50.371Z,15.80
2017-10-10T14:51:18.652Z,15.90
2017-10-10T14:53:46.938Z,15.90
2017-10-10T14:56:15.208Z,15.80
2017-10-10T14:58:43.494Z,15.90
2017-10-10T15:01:11.775Z,15.90
2017-10-10T15:03:40.075Z,15.90
2017-10-10T15:06:08.319Z,16.00
2017-10-10T15:08:37.355Z,16.00
2017-10-10T15:11:05.623Z,16.00
2017-10-10T15:13:33.886Z,16.00
2017-10-10T15:16:02.181Z,15.90
2017-10-10T15:18:30.438Z,15.90
2017-10-10T15:20:59.440Z,15.90
2017-10-10T15:23:27.707Z,15.90
2017-10-10T15:25:56.743Z,15.80
2017-10-10T15:28:25.003Z,15.80
2017-10-10T15:30:53.258Z,15.80
2017-10-10T15:33:22.298Z,15.80
2017-10-10T15:35:50.580Z,15.70
2017-10-10T15:38:18.835Z,15.70
2017-10-10T15:40:47.168Z,15.70
2017-10-10T15:43:15.524Z,15.60
2017-10-10T15:45:43.773Z,15.60
2017-10-10T15:48:12.807Z,15.50
2017-10-10T15:50:41.086Z,15.50
2017-10-10T15:53:09.351Z,15.50
2017-10-10T15:55:37.595Z,15.50
2017-10-10T15:58:05.934Z,15.50
2017-10-10T16:00:34.171Z,15.40
2017-10-10T16:03:03.219Z,15.40
2017-10-10T16:05:31.495Z,15.40
2017-10-10T16:07:59.777Z,15.40
2017-10-10T16:10:28.020Z,15.40
2017-10-10T16:12:57.028Z,15.30
2017-10-10T16:15:25.282Z,15.30
2017-10-10T16:17:54.297Z,15.30
2017-10-10T16:20:23.448Z,15.20
2017-10-10T16:22:52.448Z,15.30
2017-10-10T16:25:20.712Z,15.30
2017-10-10T16:27:48.967Z,15.30
2017-10-10T16:30:17.239Z,15.20
2017-10-10T16:32:46.248Z,15.20
2017-10-10T16:35:15.276Z,15.20
2017-10-10T16:37:43.519Z,15.20
2017-10-10T16:40:12.543Z,15.20
2017-10-10T16:42:40.789Z,15.20
2017-10-10T16:45:09.807Z,15.20
2017-10-10T16:47:38.831Z,15.20
2017-10-10T16:50:07.093Z,15.20
2017-10-10T16:52:35.434Z,15.20
2017-10-10T16:55:03.850Z,15.20
2017-10-10T16:57:32.854Z,15.10
2017-10-10T17:00:01.882Z,15.10
2017-10-10T17:02:30.131Z,15.10
2017-10-10T17:04:59.150Z,15.20
2017-10-10T17:07:27.395Z,15.10
2017-10-10T17:09:56.415Z,15.10
2017-10-10T17:12:24.653Z,15.10
2017-10-10T17:14:52.900Z,15.00
2017-10-10T17:17:21.156Z,15.10
2017-10-10T17:19:50.183Z,15.10
2017-10-10T17:22:18.418Z,15.10
2017-10-10T17:24:47.440Z,15.10
2017-10-10T17:27:15.697Z,15.10
2017-10-10T17:29:44.735Z,15.10
2017-10-10T17:32:12.978Z,15.00
2017-10-10T17:34:42.163Z,15.00
2017-10-10T17:37:10.415Z,14.90
2017-10-10T17:39:38.686Z,14.90
2017-10-10T17:42:06.943Z,14.90
2017-10-10T17:44:35.179Z,14.90
2017-10-10T17:47:03.439Z,14.90
2017-10-10T17:49:31.674Z,14.80
2017-10-10T17:52:00.712Z,14.80
2017-10-10T17:54:28.957Z,14.80
2017-10-10T17:56:57.979Z,14.80
2017-10-10T17:59:26.224Z,14.80
2017-10-10T18:01:55.247Z,14.90
2017-10-10T18:04:23.492Z,14.80
2017-10-10T18:06:51.751Z,14.90
2017-10-10T18:09:20.015Z,14.80
2017-10-10T18:11:48.299Z,14.80
2017-10-10T18:14:16.579Z,14.90
2017-10-10T18:16:44.830Z,14.90
2017-10-10T18:19:13.066Z,14.80
2017-10-10T18:21:41.322Z,14.90
2017-10-10T18:24:09.558Z,14.80
2017-10-10T18:26:38.592Z,14.80
2017-10-10T18:29:06.831Z,14.80
2017-10-10T18:31:35.856Z,14.80
2017-10-10T18:34:04.159Z,14.80
2017-10-10T18:36:32.449Z,14.90
2017-10-10T18:39:01.627Z,14.90
2017-10-10T18:41:29.867Z,14.80
2017-10-10T18:43:58.126Z,14.90
2017-10-10T18:46:26.368Z,14.80
2017-10-10T18:48:54.622Z,14.80
2017-10-10T18:51:22.869Z,14.90
2017-10-10T18:53:51.129Z,14.90
2017-10-10T18:56:19.363Z,14.80
2017-10-10T18:58:48.399Z,14.80
2017-10-10T19:01:16.643Z,14.80
2017-10-10T19:03:44.905Z,14.80
2017-10-10T19:06:13.146Z,14.80
2017-10-10T19:08:41.402Z,14.80
2017-10-10T19:11:10.412Z,14.90
2017-10-10T19:13:38.666Z,14.90
2017-10-10T19:16:07.666Z,14.80
2017-10-10T19:18:36.707Z,14.90
2017-10-10T19:21:04.946Z,14.90
2017-10-10T19:23:33.972Z,14.90
2017-10-10T19:26:02.206Z,14.90
2017-10-10T19:28:30.467Z,14.90
2017-10-10T19:30:58.708Z,14.80
2017-10-10T19:33:27.011Z,14.90
2017-10-10T19:35:55.312Z,14.80
2017-10-10T19:38:23.586Z,14.90
2017-10-10T19:40:51.863Z,14.90
2017-10-10T19:43:20.206Z,14.90
2017-10-10T19:45:49.210Z,14.80
2017-10-10T19:48:18.251Z,14.90
2017-10-10T19:50:46.519Z,14.80
2017-10-10T19:53:14.763Z,14.80
2017-10-10T19:55:43.788Z,14.80
2017-10-10T19:58:12.030Z,14.80
2017-10-10T20:00:41.090Z,14.90
2017-10-10T20:03:09.333Z,14.90
2017-10-10T20:05:38.368Z,14.90
2017-10-10T20:08:06.638Z,14.90
2017-10-10T20:10:34.899Z,14.90
2017-10-10T20:13:03.324Z,14.90
2017-10-10T20:15:31.937Z,14.90
2017-10-10T20:18:01.143Z,15.00
2017-10-10T20:20:30.334Z,14.90
2017-10-10T20:22:58.610Z,14.90
2017-10-10T20:25:26.872Z,14.90
2017-10-10T20:27:55.119Z,14.80
2017-10-10T20:30:23.438Z,14.80
2017-10-10T20:32:51.710Z,14.80
2017-10-10T20:35:19.982Z,14.70
2017-10-10T20:37:48.234Z,14.70
2017-10-10T20:40:17.262Z,14.70
2017-10-10T20:42:45.508Z,14.70
2017-10-10T20:45:14.529Z,14.50
2017-10-10T20:47:42.825Z,14.50
2017-10-10T20:50:11.091Z,14.50
2017-10-10T20:52:39.340Z,14.60
2017-10-10T20:55:07.607Z,14.60
2017-10-10T20:57:35.959Z,14.50
2017-10-10T21:00:04.234Z,14.50
2017-10-10T21:02:32.515Z,14.40
2017-10-10T21:05:00.781Z,14.40
2017-10-10T21:07:29.028Z,14.40
2017-10-10T21:09:58.162Z,14.40
2017-10-10T21:12:26.418Z,14.40
2017-10-10T21:14:55.436Z,14.40
2017-10-10T21:17:23.699Z,14.40
2017-10-10T21:19:52.734Z,14.40
2017-10-10T21:22:21.023Z,14.30
2017-10-10T21:24:49.312Z,14.30
2017-10-10T21:27:17.568Z,14.30
2017-10-10T21:29:45.825Z,14.30
2017-10-10T21:32:14.859Z,14.30
2017-10-10T21:34:43.115Z,14.20
2017-10-10T21:37:11.418Z,14.30
2017-10-10T21:39:39.691Z,14.30
2017-10-10T21:42:08.083Z,14.30
2017-10-10T21:44:36.895Z,14.30
2017-10-10T21:47:06.697Z,14.30
2017-10-10T21:49:34.980Z,14.30
2017-10-10T21:52:03.259Z,14.30
2017-10-10T21:54:31.518Z,14.30
2017-10-10T21:56:59.795Z,14.20
2017-10-10T21:59:28.107Z,14.20
2017-10-10T22:01:56.374Z,14.20
2017-10-10T22:04:24.630Z,14.20
2017-10-10T22:06:52.909Z,14.20
2017-10-10T22:09:21.179Z,14.20
2017-10-10T22:11:50.192Z,14.10
2017-10-10T22:14:18.439Z,14.10
2017-10-10T22:16:47.484Z,14.10
2017-10-10T22:19:15.785Z,14.10
2017-10-10T22:21:44.052Z,14.10
2017-10-10T22:24:12.336Z,14.10
2017-10-10T22:26:40.619Z,14.10
2017-10-10T22:29:08.895Z,14.10
2017-10-10T22:31:37.148Z,14.10
2017-10-10T22:34:06.192Z,14.10
2017-10-10T22:36:34.468Z,14.10
2017-10-10T22:39:02.762Z,14.10
2017-10-10T22:41:31.026Z,14.00
2017-10-10T22:44:00.210Z,14.00
2017-10-10T22:46:28.478Z,14.00
2017-10-10T22:48:56.784Z,14.00
2017-10-10T22:51:25.039Z,14.00
2017-10-10T22:53:53.303Z,14.00
2017-10-10T22:56:22.352Z,14.00
2017-10-10T22:58:50.633Z,14.00
2017-10-10T23:01:18.903Z,13.90
2017-10-10T23:03:47.161Z,13.90
2017-10-10T23:06:16.163Z,14.00
2017-10-10T23:08:44.472Z,13.90
2017-10-10T23:11:12.758Z,14.00
2017-10-10T23:13:41.030Z,14.00
2017-10-10T23:16:09.279Z,14.00
2017-10-10T23:18:38.312Z,13.90
2017-10-10T23:21:06.590Z,13.90
2017-10-10T23:23:34.898Z,14.00
2017-10-10T23:26:03.154Z,13.90
2017-10-10T23:28:31.419Z,13.90
2017-10-10T23:30:59.711Z,13.90
2017-10-10T23:33:27.966Z,13.90
2017-10-10T23:35:56.289Z,13.90
2017-10-10T23:38:24.548Z,13.80
2017-10-10T23:40:52.834Z,13.80
2017-10-10T23:43:21.082Z,13.90
2017-10-10T23:45:50.115Z,13.80
2017-10-10T23:48:18.394Z,13.80
2017-10-10T23:50:46.667Z,13.80
2017-10-10T23:53:14.921Z,13.90
2017-10-10T23:55:43.947Z,13.90
2017-10-10T23:58:12.197Z,13.90
